createdAt,value
2023-11-10T00:01:24.379Z,58.58
2023-11-10T00:04:09.605Z,57.57
2023-11-10T00:06:54.849Z,58.10
2023-11-10T00:09:39.874Z,58.88
2023-11-10T00:12:24.922Z,58.88
2023-11-10T00:15:10.027Z,58.76
2023-11-10T00:17:54.633Z,59.78
2023-11-10T00:20:39.586Z,60.37
2023-11-10T00:23:24.658Z,60.25
2023-11-10T00:26:09.655Z,59.74
2023-11-10T00:28:54.617Z,60.72
2023-11-10T00:31:39.655Z,60.48
2023-11-10T00:34:24.586Z,59.76
2023-11-10T00:37:09.589Z,59.48
2023-11-10T00:39:54.479Z,59.53
2023-11-10T00:42:39.542Z,58.48
2023-11-10T00:45:24.414Z,57.21
2023-11-10T00:48:09.539Z,57.32
2023-11-10T00:50:54.437Z,56.91
2023-11-10T00:53:39.612Z,57.08
2023-11-10T00:56:24.744Z,58.14
2023-11-10T00:59:09.657Z,58.74
2023-11-10T01:01:54.731Z,58.36
2023-11-10T01:04:39.584Z,57.50
2023-11-10T01:07:24.657Z,58.44
2023-11-10T01:10:09.788Z,57.60
2023-11-10T01:12:54.664Z,57.62
2023-11-10T01:15:39.528Z,57.08
2023-11-10T01:18:24.477Z,57.52
2023-11-10T01:21:09.548Z,57.51
2023-11-10T01:23:54.445Z,57.15
2023-11-10T01:26:39.419Z,57.18
2023-11-10T01:29:24.251Z,56.86
2023-11-10T01:32:09.275Z,56.97
2023-11-10T01:34:54.196Z,57.05
2023-11-10T01:37:38.987Z,57.30
2023-11-10T01:40:24.052Z,57.64
2023-11-10T01:43:09.054Z,57.12
2023-11-10T01:45:53.964Z,56.45
2023-11-10T01:48:38.877Z,56.64
2023-11-10T01:51:23.833Z,56.75
2023-11-10T01:54:08.809Z,57.27
2023-11-10T01:56:53.698Z,57.16
2023-11-10T01:59:38.856Z,57.22
2023-11-10T02:02:23.864Z,56.59
2023-11-10T02:05:08.862Z,57.88
2023-11-10T02:07:53.781Z,61.87
2023-11-10T02:10:38.779Z,61.36
2023-11-10T02:13:23.733Z,61.58
2023-11-10T02:16:08.657Z,59.44
2023-11-10T02:18:53.602Z,57.82
2023-11-10T02:21:38.638Z,57.81
2023-11-10T02:24:23.594Z,57.31
2023-11-10T02:27:08.396Z,57.73
2023-11-10T02:29:53.477Z,57.86
2023-11-10T02:32:38.542Z,56.90
2023-11-10T02:35:23.490Z,56.53
2023-11-10T02:38:08.449Z,56.85
2023-11-10T02:40:53.513Z,56.85
2023-11-10T02:43:38.585Z,57.07
2023-11-10T02:46:23.424Z,56.74
2023-11-10T02:49:08.388Z,56.86
2023-11-10T02:51:53.335Z,57.40
2023-11-10T02:54:38.346Z,57.56
2023-11-10T02:57:23.491Z,56.65
2023-11-10T03:00:08.222Z,56.32
2023-11-10T03:02:53.173Z,57.00
2023-11-10T03:05:38.223Z,56.65
2023-11-10T03:08:23.231Z,56.57
2023-11-10T03:11:08.141Z,57.59
2023-11-10T03:13:53.178Z,57.37
2023-11-10T03:16:38.157Z,56.96
2023-11-10T03:19:23.113Z,58.00
2023-11-10T03:22:07.971Z,57.74
2023-11-10T03:24:52.821Z,58.47
2023-11-10T03:27:37.888Z,59.00
2023-11-10T03:30:22.941Z,58.32
2023-11-10T03:33:07.771Z,57.83
2023-11-10T03:35:52.609Z,57.30
2023-11-10T03:38:37.732Z,55.39
2023-11-10T03:41:22.690Z,54.89
2023-11-10T03:44:07.724Z,55.05
2023-11-10T03:46:52.592Z,55.65
2023-11-10T03:49:37.474Z,56.78
2023-11-10T03:52:22.313Z,57.64
2023-11-10T03:55:07.169Z,57.43
2023-11-10T03:57:52.070Z,56.98
2023-11-10T04:00:45.726Z,57.84
2023-11-10T04:03:33.578Z,57.22
2023-11-10T04:06:25.867Z,56.94
2023-11-10T04:09:16.184Z,57.01
2023-11-10T04:12:01.121Z,57.80
2023-11-10T04:14:46.078Z,58.17
2023-11-10T04:17:31.115Z,58.18
2023-11-10T04:20:15.944Z,58.10
2023-11-10T04:23:00.838Z,57.87
2023-11-10T04:25:45.875Z,57.98
2023-11-10T04:28:30.801Z,58.21
2023-11-10T04:31:15.991Z,58.50
2023-11-10T04:34:00.957Z,58.53
2023-11-10T04:36:46.042Z,58.37
2023-11-10T04:39:30.938Z,58.12
2023-11-10T04:42:15.952Z,58.60
2023-11-10T04:45:01.008Z,58.33
2023-11-10T04:47:45.955Z,57.87
2023-11-10T04:50:30.978Z,58.38
2023-11-10T04:53:15.928Z,58.18
2023-11-10T04:56:00.893Z,58.15
2023-11-10T04:58:45.700Z,58.43
2023-11-10T05:01:30.696Z,58.20
2023-11-10T05:04:15.687Z,58.93
2023-11-10T05:07:00.500Z,58.74
2023-11-10T05:09:45.686Z,58.20
2023-11-10T05:12:30.677Z,59.41
2023-11-10T05:15:15.656Z,58.98
2023-11-10T05:18:00.662Z,58.67
2023-11-10T05:20:45.636Z,58.89
2023-11-10T05:23:30.565Z,58.85
2023-11-10T05:26:15.639Z,58.51
2023-11-10T05:29:00.729Z,58.35
2023-11-10T05:31:45.492Z,58.77
2023-11-10T05:34:30.483Z,58.73
2023-11-10T05:37:15.331Z,58.74
2023-11-10T05:40:00.340Z,58.23
2023-11-10T05:42:45.235Z,58.09
2023-11-10T05:45:30.155Z,58.24
2023-11-10T05:48:15.182Z,58.35
2023-11-10T05:50:59.998Z,58.58
2023-11-10T05:53:45.157Z,58.53
2023-11-10T05:56:30.142Z,58.45
2023-11-10T05:59:15.158Z,58.17
2023-11-10T06:02:00.035Z,57.59
2023-11-10T06:04:45.150Z,57.24
2023-11-10T06:07:29.963Z,58.22
2023-11-10T06:10:15.064Z,58.08
2023-11-10T06:13:00.039Z,57.84
2023-11-10T06:15:44.979Z,58.26
2023-11-10T06:18:30.082Z,58.51
2023-11-10T06:21:15.020Z,58.36
2023-11-10T06:23:59.814Z,58.22
2023-11-10T06:26:44.791Z,58.37
2023-11-10T06:29:29.880Z,58.77
2023-11-10T06:32:14.766Z,59.09
2023-11-10T06:34:59.898Z,60.76
2023-11-10T06:37:44.920Z,59.97
2023-11-10T06:40:30.743Z,62.20
2023-11-10T06:43:15.484Z,61.58
2023-11-10T06:46:00.499Z,61.07
2023-11-10T06:48:45.608Z,59.80
2023-11-10T06:51:30.452Z,60.71
2023-11-10T06:54:15.474Z,61.09
2023-11-10T06:57:00.473Z,60.02
2023-11-10T06:59:45.382Z,59.33
2023-11-10T07:02:30.391Z,59.16
2023-11-10T07:05:15.343Z,59.35
2023-11-10T07:08:00.469Z,59.66
2023-11-10T07:10:46.245Z,59.71
2023-11-10T07:13:31.571Z,58.85
2023-11-10T07:16:16.794Z,58.72
2023-11-10T07:19:01.830Z,59.41
2023-11-10T07:21:46.782Z,58.36
2023-11-10T07:24:31.772Z,57.84
2023-11-10T07:27:16.873Z,57.83
2023-11-10T07:30:01.858Z,58.55
2023-11-10T07:32:46.933Z,61.80
2023-11-10T07:35:31.895Z,62.88
2023-11-10T07:38:16.928Z,63.89
2023-11-10T07:41:02.013Z,64.58
2023-11-10T07:43:46.936Z,64.42
2023-11-10T07:46:32.091Z,63.47
2023-11-10T07:49:16.972Z,61.89
2023-11-10T07:52:02.018Z,60.55
2023-11-10T07:54:57.669Z,59.34
2023-11-10T07:57:44.828Z,58.65
2023-11-10T08:00:29.482Z,57.95
2023-11-10T08:03:14.489Z,57.59
2023-11-10T08:05:59.491Z,57.33
2023-11-10T08:08:44.479Z,57.15
2023-11-10T08:11:32.398Z,57.15
2023-11-10T08:14:19.117Z,58.75
2023-11-10T08:17:04.017Z,60.00
2023-11-10T08:19:49.077Z,59.55
2023-11-10T08:22:34.107Z,60.92
2023-11-10T08:25:19.199Z,59.69
2023-11-10T08:28:04.317Z,58.73
2023-11-10T08:30:49.416Z,58.68
2023-11-10T08:33:34.315Z,58.79
2023-11-10T08:36:19.365Z,57.76
2023-11-10T08:39:04.293Z,58.79
2023-11-10T08:41:49.456Z,58.82
2023-11-10T08:44:34.491Z,58.50
2023-11-10T08:47:19.463Z,58.32
2023-11-10T08:50:04.470Z,57.96
2023-11-10T08:52:49.367Z,57.16
2023-11-10T08:55:34.388Z,56.76
2023-11-10T08:58:19.465Z,56.90
2023-11-10T09:01:04.441Z,57.28
2023-11-10T09:03:49.394Z,56.81
2023-11-10T09:06:34.281Z,56.37
2023-11-10T09:09:19.370Z,56.28
2023-11-10T09:12:04.249Z,55.92
2023-11-10T09:14:49.349Z,57.25
2023-11-10T09:17:34.244Z,56.38
2023-11-10T09:20:19.303Z,56.32
2023-11-10T09:23:04.354Z,56.02
2023-11-10T09:25:49.417Z,56.17
2023-11-10T09:28:34.514Z,56.01
2023-11-10T09:31:19.422Z,56.13
2023-11-10T09:34:06.063Z,55.38
2023-11-10T09:36:50.931Z,54.92
2023-11-10T09:39:35.923Z,54.93
2023-11-10T09:42:20.840Z,54.98
2023-11-10T09:45:05.823Z,54.83
2023-11-10T09:47:51.068Z,54.48
2023-11-10T09:50:35.996Z,53.94
2023-11-10T09:53:21.085Z,52.85
2023-11-10T09:56:06.023Z,51.74
2023-11-10T09:58:51.020Z,51.42
2023-11-10T10:01:35.932Z,50.84
2023-11-10T10:04:20.982Z,51.89
2023-11-10T10:07:06.033Z,51.18
2023-11-10T10:09:50.865Z,54.89
2023-11-10T10:12:35.847Z,54.43
2023-11-10T10:15:21.942Z,55.64
2023-11-10T10:18:06.909Z,55.01
2023-11-10T10:20:51.915Z,54.23
2023-11-10T10:23:36.884Z,53.27
2023-11-10T10:26:21.785Z,53.20
2023-11-10T10:29:06.741Z,53.02
2023-11-10T10:31:51.791Z,53.50
2023-11-10T10:34:36.507Z,52.87
2023-11-10T10:37:21.337Z,54.99
2023-11-10T10:40:06.264Z,55.09
2023-11-10T10:42:51.270Z,54.16
2023-11-10T10:45:36.256Z,53.66
2023-11-10T10:48:21.065Z,52.07
2023-11-10T10:51:06.035Z,51.46
2023-11-10T10:53:50.968Z,50.59
2023-11-10T10:56:44.173Z,49.48
2023-11-10T10:59:30.647Z,48.62
2023-11-10T11:02:15.615Z,48.63
2023-11-10T11:05:00.654Z,50.54
2023-11-10T11:07:45.473Z,51.69
2023-11-10T11:10:30.429Z,50.73
2023-11-10T11:13:15.406Z,50.42
2023-11-10T11:16:00.401Z,50.65
2023-11-10T11:18:45.264Z,50.64
2023-11-10T11:21:30.297Z,50.02
2023-11-10T11:24:15.296Z,49.04
2023-11-10T11:27:00.244Z,49.22
2023-11-10T11:29:45.132Z,49.26
2023-11-10T11:32:30.025Z,51.70
2023-11-10T11:35:14.964Z,52.14
2023-11-10T11:38:00.054Z,52.03
2023-11-10T11:40:45.043Z,51.42
2023-11-10T11:43:29.993Z,50.89
2023-11-10T11:46:14.937Z,50.53
2023-11-10T11:48:59.750Z,50.64
2023-11-10T11:51:44.650Z,51.64
2023-11-10T11:54:29.755Z,52.11
2023-11-10T11:57:14.652Z,51.62
2023-11-10T11:59:59.790Z,52.32
2023-11-10T12:02:44.906Z,54.00
2023-11-10T12:05:29.785Z,53.37
2023-11-10T12:08:14.674Z,55.19
2023-11-10T12:10:59.790Z,55.38
2023-11-10T12:13:44.790Z,53.73
2023-11-10T12:19:19.312Z,52.15
2023-11-10T12:22:04.868Z,51.56
2023-11-10T12:24:49.907Z,51.94
2023-11-10T12:27:34.767Z,51.81
2023-11-10T12:30:19.726Z,51.73
2023-11-10T12:33:04.729Z,53.13
2023-11-10T12:35:49.660Z,56.82
2023-11-10T12:38:34.627Z,58.38
2023-11-10T12:41:19.642Z,55.89
2023-11-10T12:44:04.626Z,55.05
2023-11-10T12:46:49.661Z,55.97
2023-11-10T12:49:34.482Z,56.81
2023-11-10T12:52:19.547Z,55.81
2023-11-10T12:55:04.592Z,56.27
2023-11-10T12:57:49.352Z,55.25
2023-11-10T13:00:34.363Z,55.04
2023-11-10T13:03:19.619Z,54.97
2023-11-10T13:06:04.475Z,57.65
2023-11-10T13:08:49.319Z,57.16
2023-11-10T13:11:34.372Z,56.15
2023-11-10T13:14:19.363Z,55.23
2023-11-10T13:17:04.329Z,54.40
2023-11-10T13:19:49.412Z,55.44
2023-11-10T13:22:34.312Z,54.72
2023-11-10T13:25:19.445Z,54.61
2023-11-10T13:28:04.391Z,54.44
2023-11-10T13:30:49.457Z,54.18
2023-11-10T13:33:34.368Z,53.67
2023-11-10T13:36:19.409Z,54.55
2023-11-10T13:39:04.352Z,54.69
2023-11-10T13:41:50.170Z,54.43
2023-11-10T13:44:35.469Z,53.97
2023-11-10T13:47:20.402Z,53.93
2023-11-10T13:50:05.414Z,54.72
2023-11-10T13:52:50.454Z,54.16
2023-11-10T13:55:35.524Z,54.20
2023-11-10T13:58:20.590Z,55.41
2023-11-10T14:01:05.500Z,54.99
2023-11-10T14:03:50.750Z,54.98
2023-11-10T14:06:35.440Z,54.81
2023-11-10T14:09:20.407Z,58.10
2023-11-10T14:12:05.281Z,56.92
2023-11-10T14:14:50.388Z,57.82
2023-11-10T14:17:35.353Z,57.28
2023-11-10T14:20:20.172Z,58.12
2023-11-10T14:23:05.082Z,57.29
2023-11-10T14:25:50.063Z,57.04
2023-11-10T14:28:35.222Z,57.75
2023-11-10T14:31:20.242Z,56.75
2023-11-10T14:34:05.529Z,56.05
2023-11-10T14:36:50.445Z,55.70
2023-11-10T14:39:35.577Z,56.84
2023-11-10T14:42:20.592Z,57.07
2023-11-10T14:45:05.543Z,56.43
2023-11-10T14:47:50.508Z,56.17
2023-11-10T14:50:35.537Z,55.75
2023-11-10T14:53:20.445Z,55.91
2023-11-10T14:56:05.409Z,56.07
2023-11-10T14:58:50.479Z,56.72
2023-11-10T15:01:35.368Z,56.24
2023-11-10T15:04:20.399Z,56.13
2023-11-10T15:07:05.360Z,56.42
2023-11-10T15:09:50.323Z,56.50
2023-11-10T15:12:35.450Z,57.02
2023-11-10T15:15:20.248Z,57.36
2023-11-10T15:18:05.470Z,57.61
2023-11-10T15:20:50.292Z,57.90
2023-11-10T15:23:35.283Z,57.53
2023-11-10T15:26:20.288Z,58.23
2023-11-10T15:29:05.323Z,57.76
2023-11-10T15:31:50.471Z,57.93
2023-11-10T15:34:35.460Z,57.78
2023-11-10T15:37:20.563Z,57.57
2023-11-10T15:40:05.387Z,57.91
2023-11-10T15:42:50.452Z,58.60
2023-11-10T15:45:35.409Z,58.53
2023-11-10T15:48:20.492Z,58.98
2023-11-10T15:51:06.503Z,59.29
2023-11-10T15:53:51.471Z,59.23
2023-11-10T15:56:36.412Z,60.09
2023-11-10T15:59:21.383Z,61.30
2023-11-10T16:02:06.450Z,60.48
2023-11-10T16:04:51.238Z,60.14
2023-11-10T16:07:36.242Z,60.80
2023-11-10T16:10:23.157Z,60.65
2023-11-10T16:13:09.278Z,60.41
2023-11-10T16:15:54.253Z,61.23
2023-11-10T16:18:39.185Z,60.92
2023-11-10T16:21:24.100Z,61.73
2023-11-10T16:24:09.088Z,61.49
2023-11-10T16:26:54.000Z,61.79
2023-11-10T16:29:39.024Z,61.37
2023-11-10T16:32:23.994Z,61.00
2023-11-10T16:35:09.179Z,61.37
2023-11-10T16:37:54.145Z,61.33
2023-11-10T16:40:39.156Z,60.63
2023-11-10T16:43:23.961Z,61.41
2023-11-10T16:46:09.010Z,61.00
2023-11-10T16:48:53.867Z,61.22
2023-11-10T16:51:38.933Z,61.53
2023-11-10T16:54:23.862Z,61.75
2023-11-10T16:57:08.822Z,59.81
2023-11-10T16:59:53.926Z,59.67
2023-11-10T17:02:45.187Z,59.40
2023-11-10T17:05:31.170Z,60.12
2023-11-10T17:08:16.452Z,59.30
2023-11-10T17:11:01.462Z,60.41
2023-11-10T17:13:46.454Z,60.36
2023-11-10T17:16:31.510Z,60.61
2023-11-10T17:19:16.409Z,60.76
2023-11-10T17:22:01.329Z,60.45
2023-11-10T17:24:46.094Z,60.34
2023-11-10T17:27:31.137Z,60.43
2023-11-10T17:30:16.034Z,60.81
2023-11-10T17:33:01.022Z,60.65
2023-11-10T17:35:45.890Z,60.06
2023-11-10T17:38:30.834Z,59.10
2023-11-10T17:41:15.918Z,58.07
2023-11-10T17:44:00.888Z,58.16
2023-11-10T17:46:45.986Z,58.04
2023-11-10T17:49:30.757Z,58.07
2023-11-10T17:52:15.777Z,56.52
2023-11-10T17:55:00.720Z,58.16
2023-11-10T17:57:45.624Z,58.21
2023-11-10T18:00:30.470Z,58.72
2023-11-10T18:03:15.402Z,58.47
2023-11-10T18:06:00.895Z,57.92
2023-11-10T18:08:46.340Z,58.17
2023-11-10T18:11:31.455Z,58.28
2023-11-10T18:14:16.348Z,57.40
2023-11-10T18:17:01.415Z,57.67
2023-11-10T18:19:46.417Z,58.15
2023-11-10T18:22:31.299Z,56.76
2023-11-10T18:25:16.327Z,57.16
2023-11-10T18:28:01.276Z,57.84
2023-11-10T18:30:46.445Z,58.03
2023-11-10T18:33:31.235Z,57.83
2023-11-10T18:36:16.104Z,56.54
2023-11-10T18:39:01.000Z,56.66
2023-11-10T18:41:46.029Z,56.44
2023-11-10T18:44:30.998Z,56.42
2023-11-10T18:47:16.011Z,56.90
2023-11-10T18:50:00.990Z,56.85
2023-11-10T18:52:45.880Z,56.69
2023-11-10T18:55:30.876Z,56.58
2023-11-10T18:58:15.929Z,56.03
2023-11-10T19:01:01.053Z,56.45
2023-11-10T19:03:45.929Z,56.83
2023-11-10T19:06:30.928Z,56.26
2023-11-10T19:09:15.897Z,57.20
2023-11-10T19:12:00.753Z,57.54
2023-11-10T19:14:45.881Z,57.09
2023-11-10T19:17:30.805Z,57.70
2023-11-10T19:20:15.831Z,57.56
2023-11-10T19:23:00.639Z,56.41
2023-11-10T19:25:45.702Z,55.34
2023-11-10T19:28:30.606Z,57.57
2023-11-10T19:31:15.632Z,56.10
2023-11-10T19:34:00.648Z,56.21
2023-11-10T19:36:45.541Z,56.57
2023-11-10T19:39:30.476Z,56.10
2023-11-10T19:42:15.445Z,55.86
2023-11-10T19:45:00.530Z,54.84
2023-11-10T19:47:48.198Z,54.02
2023-11-10T19:50:34.439Z,53.58
2023-11-10T19:53:19.908Z,54.38
2023-11-10T19:56:05.221Z,56.50
2023-11-10T20:01:37.580Z,59.92
2023-11-10T20:04:22.442Z,58.70
2023-11-10T20:07:07.452Z,57.44
2023-11-10T20:09:52.308Z,57.55
2023-11-10T20:12:37.389Z,57.14
2023-11-10T20:15:22.301Z,57.39
2023-11-10T20:18:07.344Z,57.34
2023-11-10T20:20:52.290Z,56.81
2023-11-10T20:23:37.315Z,57.16
2023-11-10T20:26:22.436Z,56.47
2023-11-10T20:29:07.332Z,56.31
2023-11-10T20:31:52.320Z,56.61
2023-11-10T20:34:37.346Z,57.05
2023-11-10T20:37:22.290Z,57.66
2023-11-10T20:40:07.351Z,57.85
2023-11-10T20:42:52.356Z,58.66
2023-11-10T20:45:37.527Z,58.04
2023-11-10T20:48:22.368Z,57.41
2023-11-10T20:51:07.506Z,58.16
2023-11-10T20:53:52.367Z,57.87
2023-11-10T20:56:37.210Z,58.74
2023-11-10T20:59:22.097Z,58.00
2023-11-10T21:02:07.131Z,57.37
2023-11-10T21:04:53.908Z,56.97
2023-11-10T21:07:39.426Z,56.70
2023-11-10T21:10:24.570Z,58.04
2023-11-10T21:13:09.414Z,58.87
2023-11-10T21:15:54.338Z,58.06
2023-11-10T21:18:39.299Z,57.77
2023-11-10T21:21:24.192Z,58.33
2023-11-10T21:24:09.252Z,60.00
2023-11-10T21:26:54.178Z,61.33
2023-11-10T21:29:39.154Z,60.45
2023-11-10T21:32:24.180Z,59.96
2023-11-10T21:35:09.207Z,59.11
2023-11-10T21:37:54.207Z,57.68
2023-11-10T21:40:39.283Z,58.52
2023-11-10T21:43:24.197Z,58.80
2023-11-10T21:46:09.178Z,58.27
2023-11-10T21:48:54.182Z,58.04
2023-11-10T21:51:39.159Z,57.39
2023-11-10T21:54:24.227Z,57.88
2023-11-10T21:57:09.048Z,57.49
2023-11-10T21:59:54.069Z,57.26
2023-11-10T22:02:39.016Z,57.37
2023-11-10T22:05:24.074Z,57.67
2023-11-10T22:08:09.082Z,57.81
2023-11-10T22:10:54.027Z,57.23
2023-11-10T22:13:38.991Z,57.15
2023-11-10T22:16:23.964Z,57.13
2023-11-10T22:19:08.923Z,56.63
2023-11-10T22:21:53.708Z,56.68
2023-11-10T22:24:38.778Z,55.73
2023-11-10T22:27:23.637Z,57.02
2023-11-10T22:30:08.985Z,57.27
2023-11-10T22:32:53.745Z,57.02
2023-11-10T22:35:38.523Z,57.54
2023-11-10T22:38:23.479Z,57.77
2023-11-10T22:41:08.389Z,58.01
2023-11-10T22:43:53.418Z,58.04
2023-11-10T22:46:41.356Z,57.40
2023-11-10T22:49:26.545Z,57.47
2023-11-10T22:52:11.572Z,57.18
2023-11-10T22:54:56.425Z,57.75
2023-11-10T22:57:41.712Z,58.27
2023-11-10T23:00:28.186Z,58.35
2023-11-10T23:03:13.628Z,58.76
2023-11-10T23:05:58.446Z,58.01
2023-11-10T23:08:43.551Z,58.90
2023-11-10T23:11:28.604Z,58.43
2023-11-10T23:14:13.616Z,57.95
2023-11-10T23:16:58.660Z,57.60
2023-11-10T23:19:43.576Z,58.97
2023-11-10T23:22:28.371Z,59.31
2023-11-10T23:25:13.370Z,58.86
2023-11-10T23:27:58.456Z,58.48
2023-11-10T23:30:43.433Z,59.07
2023-11-10T23:33:28.270Z,57.89
2023-11-10T23:36:13.341Z,57.95
2023-11-10T23:38:58.269Z,57.92
2023-11-10T23:41:43.340Z,57.41
2023-11-10T23:44:28.305Z,57.87
2023-11-10T23:47:13.318Z,58.51
2023-11-10T23:49:58.228Z,57.62
2023-11-10T23:52:43.190Z,58.61
2023-11-10T23:55:28.208Z,58.96
2023-11-10T23:58:13.162Z,62.20
